Terminal Aerodrome Forecast
Issued by NWS Grand Forks, ND

Home | Current Version | Previous Version | Text Only | Print | Product List | Glossary On
Versions: 1 2 3 4 5 6 7 8 9 10 11 12 13 14 15 16 17 18 19 20 21
458
FTUS43 KFGF 240845 AAA
TAFFAR
TAF AMD
KFAR 240845Z 2409/2506 35004KT 3SM BR OVC009
      TEMPO 2409/2413 1SM BR OVC003
     FM241500 36012KT 5SM BR BKN012
     FM241700 36012G19KT P6SM SCT020
     FM250400 03006KT P6SM FEW200=

USA.gov is the U.S. government's official web portal to all federal, state and local government web resources and services.